Cap-des-Rosiers, Canada
Current Conditions -  °F | °C
As of 8:00 PM on Tuesday 25 Nov 2014 (Local Time) from CYGP Reporting Station
Clear Clear  
Wind Chill: 32°   Ceiling: Unl
Heat Index: 39°   Visibility: 15mi
Dew Point: 28°   Wind: 12mph
Humidity: 65%   Direction: 260°W
Pressure: 29.64"   Gusts: NA
Location:  48.86°N, 64.23°W
Report Text: CYGP 260100Z 26010KT 15SM SKC 04/M02 A2964 RMK SLP037
Loading
Personal Weather Stations






























Interactive Weather Map New forecast layout! Learn more

10-Day Weather Forecast

Advertisements
Track Severe Weather on mobile